createdAt,value
2023-05-01T00:01:35.229Z,100684.47
2023-05-01T00:04:38.684Z,100683.63
2023-05-01T00:07:40.952Z,100682.00
2023-05-01T00:10:44.359Z,100675.16
2023-05-01T00:13:47.168Z,100673.81
2023-05-01T00:16:49.943Z,100674.03
2023-05-01T00:19:53.437Z,100674.16
2023-05-01T00:22:56.351Z,100675.09
2023-05-01T00:25:58.696Z,100666.47
2023-05-01T00:29:01.560Z,100669.41
2023-05-01T00:32:05.750Z,100674.09
2023-05-01T00:35:08.686Z,100669.72
2023-05-01T00:38:10.955Z,100667.47
2023-05-01T00:41:13.693Z,100669.06
2023-05-01T00:44:16.739Z,100663.53
2023-05-01T00:47:19.822Z,100670.25
2023-05-01T00:50:22.402Z,100672.84
2023-05-01T00:53:26.393Z,100664.00
2023-05-01T00:56:29.510Z,100669.03
2023-05-01T00:59:32.086Z,100674.97
2023-05-01T01:02:34.465Z,100671.75
2023-05-01T01:05:40.933Z,100677.75
2023-05-01T01:08:46.453Z,100670.53
2023-05-01T01:11:56.497Z,100673.41
2023-05-01T01:15:08.172Z,100666.44
2023-05-01T01:18:19.368Z,100678.44
2023-05-01T01:21:42.938Z,100663.72
2023-05-01T01:24:45.973Z,100675.56
2023-05-01T01:28:07.368Z,100668.31
2023-05-01T01:31:13.481Z,100667.63
2023-05-01T01:34:20.616Z,100673.91
2023-05-01T01:37:23.182Z,100665.59
2023-05-01T01:40:27.898Z,100658.53
2023-05-01T01:43:36.096Z,100663.38
2023-05-01T01:46:41.309Z,100664.50
2023-05-01T01:49:49.917Z,100667.97
2023-05-01T01:52:53.392Z,100670.63
2023-05-01T01:55:58.087Z,100675.41
2023-05-01T01:59:01.276Z,100677.13
2023-05-01T02:02:05.306Z,100671.59
2023-05-01T02:05:09.018Z,100675.19
2023-05-01T02:08:11.609Z,100661.72
2023-05-01T02:11:15.761Z,100677.44
2023-05-01T02:14:18.895Z,100670.66
2023-05-01T02:17:21.930Z,100667.16
2023-05-01T02:20:25.020Z,100667.72
2023-05-01T02:23:28.658Z,100669.41
2023-05-01T02:26:31.956Z,100662.78
2023-05-01T02:29:35.951Z,100666.19
2023-05-01T02:32:39.141Z,100664.75
2023-05-01T02:35:42.784Z,100673.91
2023-05-01T02:38:47.184Z,100670.81
2023-05-01T02:41:50.016Z,100672.81
2023-05-01T02:45:04.391Z,100676.41
2023-05-01T02:48:08.287Z,100680.41
2023-05-01T02:51:12.011Z,100673.34
2023-05-01T02:54:16.293Z,100673.41
2023-05-01T02:57:20.403Z,100674.50
2023-05-01T03:00:23.553Z,100680.00
2023-05-01T03:03:27.842Z,100685.81
2023-05-01T03:06:31.241Z,100683.91
2023-05-01T03:09:34.038Z,100688.53
2023-05-01T03:12:37.512Z,100692.78
2023-05-01T03:15:40.378Z,100685.75
2023-05-01T03:18:42.817Z,100685.53
2023-05-01T03:21:45.571Z,100682.50
2023-05-01T03:24:47.930Z,100683.06
2023-05-01T03:27:50.544Z,100687.53
2023-05-01T03:30:52.982Z,100693.50
2023-05-01T03:33:55.932Z,100703.31
2023-05-01T03:36:58.275Z,100695.81
2023-05-01T03:40:01.833Z,100699.25
2023-05-01T03:43:05.020Z,100701.94
2023-05-01T03:46:08.567Z,100711.16
2023-05-01T03:49:11.069Z,100701.41
2023-05-01T03:52:14.610Z,100702.69
2023-05-01T03:55:17.395Z,100695.78
2023-05-01T03:58:22.314Z,100707.09
2023-05-01T04:01:25.956Z,100704.53
2023-05-01T04:04:29.790Z,100702.13
2023-05-01T04:07:32.896Z,100710.28
2023-05-01T04:10:36.129Z,100705.03
2023-05-01T04:13:39.106Z,100710.81
2023-05-01T04:16:42.023Z,100707.19
2023-05-01T04:19:47.568Z,100698.13
2023-05-01T04:22:50.262Z,100702.13
2023-05-01T04:25:52.950Z,100700.84
2023-05-01T04:28:55.823Z,100706.59
2023-05-01T04:31:58.479Z,100706.47
2023-05-01T04:35:01.335Z,100713.31
2023-05-01T04:38:03.828Z,100714.28
2023-05-01T04:41:06.627Z,100717.84
2023-05-01T04:44:08.929Z,100715.91
2023-05-01T04:47:11.724Z,100719.38
2023-05-01T04:50:15.122Z,100724.91
2023-05-01T04:53:17.836Z,100720.62
2023-05-01T04:56:20.129Z,100727.81
2023-05-01T04:59:23.326Z,100727.91
2023-05-01T05:02:25.971Z,100721.25
2023-05-01T05:05:29.345Z,100730.19
2023-05-01T05:08:32.018Z,100736.78
2023-05-01T05:11:35.804Z,100740.16
2023-05-01T05:14:38.289Z,100736.09
2023-05-01T05:17:41.544Z,100744.84
2023-05-01T05:20:44.457Z,100745.28
2023-05-01T05:23:47.341Z,100738.47
2023-05-01T05:26:49.618Z,100743.00
2023-05-01T05:29:52.333Z,100741.91
2023-05-01T05:32:55.863Z,100754.81
2023-05-01T05:35:58.843Z,100752.09
2023-05-01T05:39:01.945Z,100760.22
2023-05-01T05:42:04.625Z,100756.78
2023-05-01T05:45:08.717Z,100761.72
2023-05-01T05:48:11.688Z,100762.81
2023-05-01T05:51:15.429Z,100765.78
2023-05-01T05:54:18.155Z,100768.97
2023-05-01T05:57:20.991Z,100771.66
2023-05-01T06:00:24.104Z,100759.78
2023-05-01T06:03:27.487Z,100764.31
2023-05-01T06:06:31.514Z,100762.37
2023-05-01T06:09:34.224Z,100759.72
2023-05-01T06:12:41.996Z,100761.94
2023-05-01T06:15:49.747Z,100767.25
2023-05-01T06:18:52.565Z,100774.88
2023-05-01T06:21:55.315Z,100770.53
2023-05-01T06:24:57.857Z,100770.19
2023-05-01T06:28:01.341Z,100771.12
2023-05-01T06:31:05.565Z,100777.06
2023-05-01T06:34:09.253Z,100776.34
2023-05-01T06:37:12.090Z,100779.31
2023-05-01T06:40:14.752Z,100775.56
2023-05-01T06:43:17.205Z,100777.38
2023-05-01T06:46:20.936Z,100779.97
2023-05-01T06:49:24.210Z,100784.53
2023-05-01T06:52:27.600Z,100779.06
2023-05-01T06:55:32.699Z,100771.31
2023-05-01T06:58:36.328Z,100779.59
2023-05-01T07:01:38.754Z,100777.88
2023-05-01T07:04:44.276Z,100784.06
2023-05-01T07:07:58.034Z,100781.00
2023-05-01T07:11:03.692Z,100782.91
2023-05-01T07:14:06.077Z,100787.84
2023-05-01T07:17:09.259Z,100784.84
2023-05-01T07:20:12.643Z,100782.31
2023-05-01T07:23:15.440Z,100789.75
2023-05-01T07:26:18.046Z,100782.63
2023-05-01T07:29:20.733Z,100787.25
2023-05-01T07:32:23.152Z,100771.78
2023-05-01T07:35:26.136Z,100781.00
2023-05-01T07:38:28.429Z,100789.53
2023-05-01T07:41:31.486Z,100782.63
2023-05-01T07:44:33.740Z,100779.50
2023-05-01T07:47:36.688Z,100776.81
2023-05-01T07:50:39.403Z,100779.63
2023-05-01T07:53:42.539Z,100781.97
2023-05-01T07:56:44.948Z,100786.72
2023-05-01T07:59:47.904Z,100781.47
2023-05-01T08:02:51.800Z,100782.75
2023-05-01T08:05:54.450Z,100773.16
2023-05-01T08:08:56.765Z,100782.06
2023-05-01T08:11:59.528Z,100781.75
2023-05-01T08:15:02.125Z,100783.94
2023-05-01T08:18:05.619Z,100781.50
2023-05-01T08:21:08.116Z,100781.56
2023-05-01T08:24:11.061Z,100781.59
2023-05-01T08:27:13.445Z,100774.38
2023-05-01T08:30:16.049Z,100780.72
2023-05-01T08:33:19.150Z,100778.47
2023-05-01T08:36:32.473Z,100784.56
2023-05-01T08:39:34.954Z,100774.69
2023-05-01T08:42:38.891Z,100780.47
2023-05-01T08:45:42.627Z,100777.06
2023-05-01T08:48:45.917Z,100769.88
2023-05-01T08:51:50.739Z,100768.97
2023-05-01T08:54:56.828Z,100766.75
2023-05-01T08:57:59.804Z,100761.50
2023-05-01T09:01:05.479Z,100762.69
2023-05-01T09:04:09.872Z,100771.69
2023-05-01T09:07:13.263Z,100769.00
2023-05-01T09:10:16.361Z,100770.44
2023-05-01T09:13:19.226Z,100765.38
2023-05-01T09:16:22.030Z,100754.72
2023-05-01T09:19:25.305Z,100761.00
2023-05-01T09:22:27.921Z,100758.16
2023-05-01T09:25:31.469Z,100751.09
2023-05-01T09:28:46.992Z,100754.03
2023-05-01T09:31:49.671Z,100750.94
2023-05-01T09:34:52.252Z,100747.62
2023-05-01T09:37:54.864Z,100746.19
2023-05-01T09:41:03.808Z,100759.84
2023-05-01T09:44:17.788Z,100744.00
2023-05-01T09:47:23.205Z,100750.69
2023-05-01T09:50:29.226Z,100743.09
2023-05-01T09:53:38.304Z,100748.56
2023-05-01T09:56:46.930Z,100734.53
2023-05-01T10:00:02.125Z,100729.03
2023-05-01T10:03:13.064Z,100721.41
2023-05-01T10:06:27.477Z,100725.78
2023-05-01T10:09:30.429Z,100723.41
2023-05-01T10:12:33.498Z,100723.66
2023-05-01T10:15:39.093Z,100732.28
2023-05-01T10:18:43.749Z,100720.78
2023-05-01T10:21:46.137Z,100724.59
2023-05-01T10:24:49.096Z,100709.84
2023-05-01T10:27:52.993Z,100710.97
2023-05-01T10:30:56.154Z,100707.47
2023-05-01T10:34:00.843Z,100699.44
2023-05-01T10:37:09.808Z,100696.38
2023-05-01T10:40:31.432Z,100691.94
2023-05-01T10:43:34.247Z,100688.53
2023-05-01T10:46:36.676Z,100681.56
2023-05-01T10:49:58.848Z,100688.22
2023-05-01T10:53:10.772Z,100688.66
2023-05-01T10:56:26.595Z,100669.22
2023-05-01T10:59:47.624Z,100679.84
2023-05-01T11:02:50.510Z,100668.53
2023-05-01T11:06:04.300Z,100665.53
2023-05-01T11:09:35.785Z,100663.53
2023-05-01T11:12:48.961Z,100652.97
2023-05-01T11:15:51.857Z,100662.56
2023-05-01T11:18:54.269Z,100651.66
2023-05-01T11:21:57.139Z,100650.56
2023-05-01T11:25:00.676Z,100647.28
2023-05-01T11:28:04.183Z,100648.28
2023-05-01T11:31:06.616Z,100640.13
2023-05-01T11:34:10.015Z,100628.69
2023-05-01T11:37:12.310Z,100629.59
2023-05-01T11:40:31.774Z,100638.38
2023-05-01T11:43:34.188Z,100633.31
2023-05-01T11:46:36.875Z,100622.22
2023-05-01T11:49:39.327Z,100624.59
2023-05-01T11:52:46.184Z,100613.63
2023-05-01T11:55:49.345Z,100629.50
2023-05-01T11:58:53.695Z,100619.87
2023-05-01T12:01:56.365Z,100611.97
2023-05-01T12:05:13.992Z,100614.03
2023-05-01T12:08:20.595Z,100611.88
2023-05-01T12:11:24.099Z,100614.56
2023-05-01T12:14:26.672Z,100610.28
2023-05-01T12:17:30.705Z,100602.78
2023-05-01T12:20:37.958Z,100604.66
2023-05-01T12:23:40.526Z,100590.72
2023-05-01T12:26:43.663Z,100597.16
2023-05-01T12:29:47.328Z,100589.87
2023-05-01T12:32:50.353Z,100591.28
2023-05-01T12:35:53.049Z,100575.72
2023-05-01T12:38:58.305Z,100572.16
2023-05-01T12:42:00.922Z,100573.56
2023-05-01T12:45:03.678Z,100570.75
2023-05-01T12:48:13.731Z,100573.00
2023-05-01T12:51:20.369Z,100563.16
2023-05-01T12:54:43.597Z,100571.69
2023-05-01T12:57:53.625Z,100556.56
2023-05-01T13:00:56.312Z,100542.81
2023-05-01T13:03:58.883Z,100534.03
2023-05-01T13:07:01.873Z,100539.31
2023-05-01T13:10:06.266Z,100537.28
2023-05-01T13:13:09.200Z,100543.53
2023-05-01T13:16:12.840Z,100543.91
2023-05-01T13:19:26.149Z,100537.28
2023-05-01T13:22:33.399Z,100524.87
2023-05-01T13:25:36.131Z,100521.22
2023-05-01T13:28:47.714Z,100517.38
2023-05-01T13:31:51.461Z,100510.94
2023-05-01T13:34:58.370Z,100514.78
2023-05-01T13:38:03.656Z,100513.16
2023-05-01T13:41:06.076Z,100512.59
2023-05-01T13:44:13.015Z,100497.91
2023-05-01T13:47:16.813Z,100497.63
2023-05-01T13:50:19.846Z,100494.81
2023-05-01T13:53:22.596Z,100494.78
2023-05-01T13:56:25.507Z,100492.22
2023-05-01T13:59:32.047Z,100487.34
2023-05-01T14:02:37.464Z,100487.41
2023-05-01T14:05:45.437Z,100482.78
2023-05-01T14:08:48.445Z,100484.69
2023-05-01T14:11:51.535Z,100473.72
2023-05-01T14:14:53.968Z,100471.72
2023-05-01T14:17:56.708Z,100468.66
2023-05-01T14:20:59.650Z,100458.09
2023-05-01T14:24:03.252Z,100455.28
2023-05-01T14:27:08.200Z,100448.56
2023-05-01T14:30:17.483Z,100444.19
2023-05-01T14:33:20.221Z,100443.72
2023-05-01T14:36:22.990Z,100440.81
2023-05-01T14:39:32.329Z,100436.69
2023-05-01T14:42:34.988Z,100441.16
2023-05-01T14:45:40.500Z,100433.75
2023-05-01T14:48:43.378Z,100427.91
2023-05-01T14:51:45.767Z,100430.03
2023-05-01T14:54:48.670Z,100419.78
2023-05-01T14:57:50.972Z,100418.06
2023-05-01T15:00:53.708Z,100415.34
2023-05-01T15:03:56.487Z,100412.84
2023-05-01T15:06:59.242Z,100413.41
2023-05-01T15:10:01.884Z,100419.59
2023-05-01T15:13:06.101Z,100416.06
2023-05-01T15:16:09.524Z,100415.63
2023-05-01T15:19:12.197Z,100412.38
2023-05-01T15:22:14.694Z,100413.66
2023-05-01T15:25:17.573Z,100411.06
2023-05-01T15:28:19.966Z,100407.13
2023-05-01T15:31:22.993Z,100406.06
2023-05-01T15:34:25.701Z,100404.22
2023-05-01T15:37:28.283Z,100401.19
2023-05-01T15:40:30.844Z,100398.12
2023-05-01T15:43:33.422Z,100395.97
2023-05-01T15:46:36.573Z,100399.34
2023-05-01T15:49:39.413Z,100403.03
2023-05-01T15:52:41.885Z,100396.59
2023-05-01T15:55:44.558Z,100404.50
2023-05-01T15:58:47.447Z,100397.63
2023-05-01T16:01:52.542Z,100403.03
2023-05-01T16:04:55.420Z,100399.94
2023-05-01T16:07:59.798Z,100404.62
2023-05-01T16:11:03.654Z,100405.34
2023-05-01T16:14:09.233Z,100402.50
2023-05-01T16:17:11.947Z,100405.25
2023-05-01T16:20:14.846Z,100410.97
2023-05-01T16:23:17.646Z,100403.91
2023-05-01T16:26:26.782Z,100409.47
2023-05-01T16:29:34.117Z,100399.28
2023-05-01T16:32:36.749Z,100391.97
2023-05-01T16:35:40.520Z,100387.59
2023-05-01T16:38:43.578Z,100388.50
2023-05-01T16:41:47.427Z,100390.28
2023-05-01T16:44:49.834Z,100391.75
2023-05-01T16:47:52.711Z,100389.94
2023-05-01T16:50:55.909Z,100390.09
2023-05-01T16:53:58.978Z,100381.81
2023-05-01T16:57:01.748Z,100393.37
2023-05-01T17:00:05.400Z,100382.09
2023-05-01T17:03:08.217Z,100384.06
2023-05-01T17:06:10.983Z,100382.47
2023-05-01T17:09:13.317Z,100390.22
2023-05-01T17:12:29.265Z,100387.47
2023-05-01T17:15:31.537Z,100390.94
2023-05-01T17:18:34.411Z,100389.00
2023-05-01T17:21:36.735Z,100393.81
2023-05-01T17:24:39.423Z,100402.97
2023-05-01T17:27:41.826Z,100392.06
2023-05-01T17:30:44.643Z,100395.31
2023-05-01T17:33:47.277Z,100391.69
2023-05-01T17:36:50.085Z,100385.66
2023-05-01T17:39:52.348Z,100387.81
2023-05-01T17:42:54.931Z,100397.78
2023-05-01T17:45:57.422Z,100381.25
2023-05-01T17:49:00.223Z,100383.94
2023-05-01T17:52:02.531Z,100391.41
2023-05-01T17:55:06.204Z,100385.87
2023-05-01T17:58:08.641Z,100388.00
2023-05-01T18:01:11.385Z,100389.06
2023-05-01T18:04:14.353Z,100385.75
2023-05-01T18:07:17.121Z,100388.06
2023-05-01T18:10:19.961Z,100375.09
2023-05-01T18:13:27.884Z,100374.72
2023-05-01T18:16:30.622Z,100386.88
2023-05-01T18:19:32.977Z,100387.25
2023-05-01T18:22:35.985Z,100388.91
2023-05-01T18:25:39.297Z,100388.69
2023-05-01T18:28:42.042Z,100390.31
2023-05-01T18:31:44.406Z,100393.63
2023-05-01T18:34:47.106Z,100389.91
2023-05-01T18:37:50.948Z,100400.19
2023-05-01T18:40:53.703Z,100403.03
2023-05-01T18:43:57.821Z,100399.69
2023-05-01T18:47:00.794Z,100398.84
2023-05-01T18:50:03.083Z,100402.13
2023-05-01T18:53:06.049Z,100401.44
2023-05-01T18:56:09.580Z,100412.47
2023-05-01T18:59:12.183Z,100414.91
2023-05-01T19:02:14.431Z,100421.06
2023-05-01T19:05:17.591Z,100417.53
2023-05-01T19:08:20.046Z,100420.13
2023-05-01T19:11:22.677Z,100423.97
2023-05-01T19:14:24.898Z,100427.81
2023-05-01T19:17:27.864Z,100427.59
2023-05-01T19:20:30.233Z,100427.94
2023-05-01T19:23:35.426Z,100423.00
2023-05-01T19:26:37.804Z,100428.69
2023-05-01T19:29:40.557Z,100426.78
2023-05-01T19:32:42.881Z,100427.56
2023-05-01T19:35:45.501Z,100431.00
2023-05-01T19:38:47.933Z,100431.81
2023-05-01T19:41:51.060Z,100425.84
2023-05-01T19:44:53.462Z,100421.47
2023-05-01T19:47:56.221Z,100419.00
2023-05-01T19:50:58.737Z,100420.84
2023-05-01T19:54:01.788Z,100420.59
2023-05-01T19:57:04.576Z,100428.06
2023-05-01T20:00:07.504Z,100421.19
2023-05-01T20:03:12.994Z,100431.59
2023-05-01T20:06:16.325Z,100430.91
2023-05-01T20:09:18.679Z,100435.16
2023-05-01T20:12:22.693Z,100431.47
2023-05-01T20:15:25.855Z,100424.22
2023-05-01T20:18:28.434Z,100428.72
2023-05-01T20:21:31.503Z,100421.94
2023-05-01T20:24:34.416Z,100426.75
2023-05-01T20:27:38.225Z,100423.25
2023-05-01T20:30:43.000Z,100423.13
2023-05-01T20:33:45.686Z,100427.84
2023-05-01T20:36:48.360Z,100423.84
2023-05-01T20:39:50.629Z,100429.75
2023-05-01T20:42:53.712Z,100429.63
2023-05-01T20:45:56.236Z,100433.13
2023-05-01T20:48:58.769Z,100431.66
2023-05-01T20:52:01.023Z,100437.81
2023-05-01T20:55:04.088Z,100432.88
2023-05-01T20:58:07.284Z,100438.94
2023-05-01T21:01:10.668Z,100451.16
2023-05-01T21:04:13.630Z,100443.16
2023-05-01T21:07:19.082Z,100441.69
2023-05-01T21:10:21.452Z,100443.69
2023-05-01T21:13:26.384Z,100448.13
2023-05-01T21:16:29.046Z,100444.97
2023-05-01T21:19:38.001Z,100445.25
2023-05-01T21:22:40.579Z,100449.84
2023-05-01T21:25:43.378Z,100451.91
2023-05-01T21:28:46.051Z,100459.75
2023-05-01T21:31:49.161Z,100460.00
2023-05-01T21:34:52.567Z,100459.91
2023-05-01T21:37:55.299Z,100458.06
2023-05-01T21:40:57.774Z,100468.72
2023-05-01T21:44:02.503Z,100463.84
2023-05-01T21:47:05.630Z,100472.47
2023-05-01T21:50:10.964Z,100468.50
2023-05-01T21:53:13.398Z,100465.09
2023-05-01T21:56:16.049Z,100463.72
2023-05-01T21:59:18.681Z,100465.62
2023-05-01T22:02:21.302Z,100467.81
2023-05-01T22:05:23.896Z,100471.31
2023-05-01T22:08:26.238Z,100470.53
2023-05-01T22:11:29.443Z,100474.19
2023-05-01T22:14:46.233Z,100472.06
2023-05-01T22:17:50.005Z,100470.63
2023-05-01T22:20:52.601Z,100460.91
2023-05-01T22:23:55.651Z,100463.75
2023-05-01T22:26:57.922Z,100467.19
2023-05-01T22:30:01.103Z,100468.00
2023-05-01T22:33:03.841Z,100459.97
2023-05-01T22:36:07.773Z,100463.34
2023-05-01T22:39:10.156Z,100458.78
2023-05-01T22:42:12.874Z,100467.94
2023-05-01T22:45:15.538Z,100458.13
2023-05-01T22:48:18.243Z,100459.94
2023-05-01T22:51:20.721Z,100462.72
2023-05-01T22:54:23.820Z,100464.69
2023-05-01T22:57:26.287Z,100465.31
2023-05-01T23:00:29.873Z,100465.56
2023-05-01T23:03:33.409Z,100457.84
2023-05-01T23:06:37.695Z,100469.69
2023-05-01T23:09:40.090Z,100460.37
2023-05-01T23:12:43.809Z,100461.66
2023-05-01T23:15:47.246Z,100464.06
2023-05-01T23:18:50.148Z,100464.75
2023-05-01T23:22:04.946Z,100460.87
2023-05-01T23:25:07.816Z,100466.22
2023-05-01T23:28:10.629Z,100466.53
2023-05-01T23:31:21.093Z,100463.25
2023-05-01T23:34:24.229Z,100453.97
2023-05-01T23:37:26.919Z,100459.38
2023-05-01T23:40:29.692Z,100464.06
2023-05-01T23:43:33.109Z,100459.72
2023-05-01T23:46:35.969Z,100458.53
2023-05-01T23:49:38.641Z,100465.88
2023-05-01T23:52:40.931Z,100457.06
2023-05-01T23:55:46.055Z,100463.50
2023-05-01T23:58:49.165Z,100468.31
